Time;durP1;ratioP1;P1;durP2;ratioP2;P2;SDS_P1;SDS_P2;PMS_P1;PMS_P2;Temp;Humidity;BMP_temperature;BMP_pressure;BME280_temperature;BME280_humidity;BME280_pressure;Samples;Min_cycle;Max_cycle;Signal;HPM_P1;HPM_P2
2023/04/21 00:01:11;;;;;;;;;;;;;;;17.79;91.19;101401.31;5072369;28;19912;-53
2023/04/21 00:03:37;;;;;;;;;;;;;;;17.92;90.06;101394.88;5072148;28;19924;-50
2023/04/21 00:06:05;;;;;;;;;;;;;;;17.96;90.97;101406.03;5072496;28;19927;-51
2023/04/21 00:08:31;;;;;;;;;;;;;;;17.91;90.23;101404.06;5072697;28;19928;-51
2023/04/21 00:10:56;;;;;;;;;;;;;;;17.99;89.91;101402.88;5072743;28;19948;-53
2023/04/21 00:13:22;;;;;;;;;;;;;;;18.02;89.60;101397.06;5073101;28;19924;-50
2023/04/21 00:15:48;;;;;;;;;;;;;;;17.78;91.58;101388.84;5076226;28;19952;-52
2023/04/21 00:18:13;;;;;;;;;;;;;;;17.80;92.06;101384.03;5076142;28;19940;-48
2023/04/21 00:20:39;;;;;;;;;;;;;;;17.76;92.60;101380.94;5076442;28;19921;-51
2023/04/21 00:23:04;;;;;;;;;;;;;;;17.79;92.67;101363.44;5076137;28;19916;-53
2023/04/21 00:25:29;;;;;;;;;;;;;;;17.71;93.31;101369.16;5076230;28;19947;-51
2023/04/21 00:27:54;;;;;;;;;;;;;;;17.78;92.46;101359.09;5075725;28;19928;-50
2023/04/21 00:30:20;;;;;;;;;;;;;;;17.76;92.25;101361.16;5091949;28;20007;-48
2023/04/21 00:32:46;;;;;;;;;;;;;;;17.68;93.41;101356.94;5072689;28;19988;-54
2023/04/21 00:35:11;;;;;;;;;;;;;;;17.78;92.40;101356.38;5091096;28;19927;-50
2023/04/21 00:37:37;;;;;;;;;;;;;;;17.70;93.56;101351.28;5075841;28;19924;-50
2023/04/21 00:40:04;;;;;;;;;;;;;;;17.74;93.34;101341.66;5075833;28;19916;-53
2023/04/21 00:42:30;;;;;;;;;;;;;;;17.99;92.29;101341.47;5076037;28;19927;-49
2023/04/21 00:44:55;;;;;;;;;;;;;;;18.03;91.71;101339.16;5075594;28;19916;-55
2023/04/21 00:47:21;;;;;;;;;;;;;;;18.17;91.22;101342.47;5075781;28;19920;-51
2023/04/21 00:49:48;;;;;;;;;;;;;;;18.19;91.15;101341.16;5083490;28;19939;-54
2023/04/21 00:52:15;;;;;;;;;;;;;;;17.93;93.12;101339.72;5075526;28;19963;-52
2023/04/21 00:54:41;;;;;;;;;;;;;;;17.91;93.21;101337.22;5072688;28;19921;-51
2023/04/21 00:57:06;;;;;;;;;;;;;;;17.89;93.70;101331.22;5071783;28;19956;-51
2023/04/21 00:59:32;;;;;;;;;;;;;;;18.01;92.92;101341.25;5072205;28;19920;-51
2023/04/21 01:01:58;;;;;;;;;;;;;;;17.73;94.32;101337.28;5075578;28;19956;-53
2023/04/21 01:04:23;;;;;;;;;;;;;;;17.87;93.62;101338.75;5074235;28;19976;-54
2023/04/21 01:06:49;;;;;;;;;;;;;;;17.74;95.03;101330.81;5075217;28;19921;-55
2023/04/21 01:09:15;;;;;;;;;;;;;;;17.84;94.38;101336.50;5074048;28;19980;-53
2023/04/21 01:11:40;;;;;;;;;;;;;;;17.75;95.05;101325.19;5075215;28;19917;-57
2023/04/21 01:14:06;;;;;;;;;;;;;;;17.83;94.43;101320.50;5074147;28;19940;-54
2023/04/21 01:16:33;;;;;;;;;;;;;;;17.80;94.76;101321.81;5073985;28;19939;-55
2023/04/21 01:18:59;;;;;;;;;;;;;;;17.93;93.78;101320.78;5074438;28;19916;-53
2023/04/21 01:21:25;;;;;;;;;;;;;;;17.95;94.09;101323.22;5074957;28;19921;-53
2023/04/21 01:23:52;;;;;;;;;;;;;;;17.97;94.51;101318.41;5074779;28;19917;-54
2023/04/21 01:26:20;;;;;;;;;;;;;;;18.03;93.91;101329.16;5073645;28;20012;-54
2023/04/21 01:28:47;;;;;;;;;;;;;;;17.93;94.55;101309.94;5073915;28;19916;-53
2023/04/21 01:31:17;;;;;;;;;;;;;;;17.88;95.35;101307.13;5073776;28;19916;-53
2023/04/21 01:33:42;;;;;;;;;;;;;;;17.68;97.36;101315.53;5073647;28;19928;-56
2023/04/21 01:36:08;;;;;;;;;;;;;;;17.63;98.78;101311.66;5074439;28;19924;-54
2023/04/21 01:38:36;;;;;;;;;;;;;;;17.89;97.29;101306.88;5071569;28;19932;-50
2023/04/21 01:41:02;;;;;;;;;;;;;;;17.98;96.59;101303.81;5074788;28;19913;-51
2023/04/21 01:43:28;;;;;;;;;;;;;;;17.89;97.56;101296.03;5071331;28;19921;-52
2023/04/21 01:45:55;;;;;;;;;;;;;;;18.00;96.35;101302.53;5074377;28;19912;-54
2023/04/21 01:48:20;;;;;;;;;;;;;;;18.08;96.01;101292.44;5072899;28;19923;-51
2023/04/21 01:50:46;;;;;;;;;;;;;;;17.94;97.03;101308.03;5074319;28;19916;-52
2023/04/21 01:53:11;;;;;;;;;;;;;;;17.97;96.86;101302.16;5073202;28;20001;-53
2023/04/21 01:55:36;;;;;;;;;;;;;;;17.99;96.93;101297.34;5070816;28;19932;-52
2023/04/21 01:58:02;;;;;;;;;;;;;;;17.79;98.02;101295.81;5074377;28;19943;-50
2023/04/21 02:00:28;;;;;;;;;;;;;;;17.90;97.82;101303.09;5068832;28;19921;-51
2023/04/21 02:02:53;;;;;;;;;;;;;;;17.95;97.74;101296.16;5074345;28;19952;-53
2023/04/21 02:05:19;;;;;;;;;;;;;;;17.96;98.39;101295.09;5074182;28;19980;-56
2023/04/21 02:07:44;;;;;;;;;;;;;;;17.87;99.10;101287.34;5070974;28;20292;-50
2023/04/21 02:10:11;;;;;;;;;;;;;;;17.81;99.82;101282.88;5074192;28;19927;-50
2023/04/21 02:12:36;;;;;;;;;;;;;;;17.84;100.00;101271.59;5074142;28;19916;-51
2023/04/21 02:15:02;;;;;;;;;;;;;;;18.06;98.75;101276.47;5073927;28;19927;-54
2023/04/21 02:17:28;;;;;;;;;;;;;;;18.04;98.96;101278.56;5073031;28;19947;-53
2023/04/21 02:19:55;;;;;;;;;;;;;;;18.08;98.07;101279.75;5085623;28;19945;-49
2023/04/21 02:22:21;;;;;;;;;;;;;;;18.01;99.09;101285.28;5072358;28;19923;-49
2023/04/21 02:24:48;;;;;;;;;;;;;;;17.96;98.95;101284.28;5074052;28;19917;-55
2023/04/21 02:27:13;;;;;;;;;;;;;;;17.71;100.00;101277.19;5069215;28;19939;-52
2023/04/21 02:29:39;;;;;;;;;;;;;;;17.72;100.00;101276.13;5073881;28;19916;-51
2023/04/21 02:32:06;;;;;;;;;;;;;;;17.52;100.00;101258.34;5072465;28;19923;-50
2023/04/21 02:34:32;;;;;;;;;;;;;;;17.74;100.00;101255.09;5072867;28;20020;-52
2023/04/21 02:36:58;;;;;;;;;;;;;;;17.76;100.00;101253.81;5073322;28;20062;-54
2023/04/21 02:39:24;;;;;;;;;;;;;;;17.96;100.00;101257.22;5069987;28;19931;-54
2023/04/21 02:41:50;;;;;;;;;;;;;;;17.90;100.00;101273.34;5072369;28;19957;-52
2023/04/21 02:44:15;;;;;;;;;;;;;;;17.85;100.00;101272.38;5073530;28;19931;-55
2023/04/21 02:46:41;;;;;;;;;;;;;;;17.78;100.00;101270.63;5069961;28;19921;-52
2023/04/21 02:49:07;;;;;;;;;;;;;;;17.47;100.00;101261.75;5073324;28;19917;-53
2023/04/21 02:51:34;;;;;;;;;;;;;;;17.51;100.00;101267.50;5072678;28;19928;-55
2023/04/21 02:53:59;;;;;;;;;;;;;;;17.47;100.00;101250.09;5070065;28;19921;-51
2023/04/21 02:56:25;;;;;;;;;;;;;;;17.44;100.00;101245.16;5073248;28;19921;-50
2023/04/21 02:58:50;;;;;;;;;;;;;;;17.54;100.00;101237.34;5072287;28;19959;-50
2023/04/21 03:01:16;;;;;;;;;;;;;;;17.66;100.00;101244.63;5073243;28;19917;-51
2023/04/21 03:03:41;;;;;;;;;;;;;;;17.57;100.00;101242.28;5073330;28;19917;-49
2023/04/21 03:06:09;;;;;;;;;;;;;;;17.48;100.00;101249.88;5072966;28;19917;-51
2023/04/21 03:08:34;;;;;;;;;;;;;;;17.54;100.00;101247.31;5073099;28;19917;-49
2023/04/21 03:11:00;;;;;;;;;;;;;;;17.50;100.00;101241.53;5070174;28;19980;-50
2023/04/21 03:13:25;;;;;;;;;;;;;;;17.57;100.00;101242.28;5071834;28;19924;-50
2023/04/21 03:15:51;;;;;;;;;;;;;;;17.49;100.00;101232.63;5072053;28;19921;-51
2023/04/21 03:18:16;;;;;;;;;;;;;;;17.69;100.00;101242.28;5070927;28;19939;-49
2023/04/21 03:20:42;;;;;;;;;;;;;;;17.53;100.00;101238.38;5073070;28;19924;-52
2023/04/21 03:23:07;;;;;;;;;;;;;;;17.31;100.00;101241.63;5072980;28;19916;-55
2023/04/21 03:25:33;;;;;;;;;;;;;;;17.48;100.00;101243.66;5073079;28;19956;-49
2023/04/21 03:27:59;;;;;;;;;;;;;;;17.59;100.00;101234.75;5070386;28;19940;-51
2023/04/21 03:30:25;;;;;;;;;;;;;;;17.52;100.00;101234.00;5070689;28;19928;-54
2023/04/21 03:32:50;;;;;;;;;;;;;;;17.49;100.00;101220.97;5072589;28;19983;-50
2023/04/21 03:35:16;;;;;;;;;;;;;;;17.65;100.00;101218.63;5072578;28;19943;-47
2023/04/21 03:37:41;;;;;;;;;;;;;;;17.46;100.00;101224.97;5070532;28;19976;-52
2023/04/21 03:40:07;;;;;;;;;;;;;;;17.52;100.00;101234.00;5071658;28;19928;-52
2023/04/21 03:42:36;;;;;;;;;;;;;;;17.45;100.00;101219.78;5071947;28;19928;-53
2023/04/21 03:45:05;;;;;;;;;;;;;;;17.42;100.00;101223.78;5071626;28;19939;-51
2023/04/21 03:47:32;;;;;;;;;;;;;;;17.32;100.00;101218.94;5071428;28;19927;-52
2023/04/21 03:49:58;;;;;;;;;;;;;;;17.74;100.00;101219.94;5075280;28;19921;-50
2023/04/21 03:52:24;;;;;;;;;;;;;;;17.84;100.00;101224.75;5073144;28;19948;-50
2023/04/21 03:54:49;;;;;;;;;;;;;;;17.66;100.00;101214.88;5076352;28;19944;-53
2023/04/21 03:57:15;;;;;;;;;;;;;;;17.56;100.00;101212.75;5076632;28;19923;-54
2023/04/21 03:59:41;;;;;;;;;;;;;;;17.66;100.00;101209.47;5075992;28;19956;-48
2023/04/21 04:02:06;;;;;;;;;;;;;;;17.68;100.00;101204.66;5076631;28;19956;-53
2023/04/21 04:04:32;;;;;;;;;;;;;;;17.63;100.00;101208.88;5076131;28;19921;-50
2023/04/21 04:06:57;;;;;;;;;;;;;;;17.52;100.00;101222.38;5076798;28;19925;-50
2023/04/21 04:09:23;;;;;;;;;;;;;;;17.22;100.00;101212.44;5076443;28;19962;-54
2023/04/21 04:11:48;;;;;;;;;;;;;;;17.17;100.00;101210.44;5074202;28;19943;-50
2023/04/21 04:14:14;;;;;;;;;;;;;;;17.00;100.00;101213.78;5076912;28;19972;-49
2023/04/21 04:16:40;;;;;;;;;;;;;;;17.11;100.00;101209.47;5076719;28;19921;-50
2023/04/21 04:19:06;;;;;;;;;;;;;;;16.92;100.00;101204.09;5076707;28;19917;-51
2023/04/21 04:21:31;;;;;;;;;;;;;;;17.04;100.00;101206.06;5076556;28;19924;-54
2023/04/21 04:23:58;;;;;;;;;;;;;;;17.09;100.00;101199.97;5076786;28;19948;-54
2023/04/21 04:26:24;;;;;;;;;;;;;;;17.10;100.00;101205.13;5076728;28;19916;-51
2023/04/21 04:28:55;;;;;;;;;;;;;;;17.26;100.00;101203.63;5076423;28;19917;-51
2023/04/21 04:31:24;;;;;;;;;;;;;;;16.97;100.00;101206.09;5075526;28;20939;-52
2023/04/21 04:33:52;;;;;;;;;;;;;;;16.80;100.00;101216.72;5076754;28;19972;-54
2023/04/21 04:36:18;;;;;;;;;;;;;;;16.82;100.00;101220.03;5076492;28;19960;-52
2023/04/21 04:38:44;;;;;;;;;;;;;;;16.96;100.00;101212.56;5076040;28;19943;-49
2023/04/21 04:41:11;;;;;;;;;;;;;;;17.18;100.00;101212.09;5075806;28;19917;-51
2023/04/21 04:43:38;;;;;;;;;;;;;;;17.41;100.00;101216.72;5076067;28;19920;-52
2023/04/21 04:46:04;;;;;;;;;;;;;;;17.16;100.00;101217.69;5076029;28;19917;-51
2023/04/21 04:48:30;;;;;;;;;;;;;;;16.94;100.00;101217.38;5076177;28;19952;-51
2023/04/21 04:50:56;;;;;;;;;;;;;;;17.09;100.00;101211.59;5075930;28;19916;-52
2023/04/21 04:53:22;;;;;;;;;;;;;;;17.19;100.00;101208.31;5075639;28;19952;-49
2023/04/21 04:55:47;;;;;;;;;;;;;;;17.27;100.00;101204.47;5075796;28;19921;-52
2023/04/21 04:58:12;;;;;;;;;;;;;;;17.27;100.00;101205.28;5075773;28;19923;-51
2023/04/21 05:00:38;;;;;;;;;;;;;;;17.29;100.00;101207.75;5075740;28;21769;-51
2023/04/21 05:03:04;;;;;;;;;;;;;;;17.45;100.00;101211.66;5075979;28;19951;-51
2023/04/21 05:05:30;;;;;;;;;;;;;;;17.47;100.00;101221.22;5075176;28;19912;-54
2023/04/21 05:07:56;;;;;;;;;;;;;;;17.22;100.00;101220.56;5076017;28;19923;-50
2023/04/21 05:10:22;;;;;;;;;;;;;;;17.20;100.00;101213.50;5075675;28;19916;-55
2023/04/21 05:12:47;;;;;;;;;;;;;;;17.04;100.00;101212.25;5075676;28;19917;-52
2023/04/21 05:15:12;;;;;;;;;;;;;;;16.90;100.00;101213.50;5075503;28;19928;-50
2023/04/21 05:17:38;;;;;;;;;;;;;;;16.91;100.00;101220.53;5075726;28;19920;-54
2023/04/21 05:20:04;;;;;;;;;;;;;;;17.21;100.00;101225.13;5073230;28;19917;-51
2023/04/21 05:22:30;;;;;;;;;;;;;;;17.24;100.00;101221.97;5075399;28;19916;-52
2023/04/21 05:24:55;;;;;;;;;;;;;;;17.45;100.00;101234.13;5075762;28;19917;-51
2023/04/21 05:27:21;;;;;;;;;;;;;;;17.37;100.00;101226.34;5075489;28;19927;-52
2023/04/21 05:29:46;;;;;;;;;;;;;;;17.35;100.00;101236.56;5075658;28;19923;-54
2023/04/21 05:32:11;;;;;;;;;;;;;;;17.24;100.00;101238.19;5075082;28;19939;-52
2023/04/21 05:34:37;;;;;;;;;;;;;;;17.43;100.00;101227.31;5075385;28;21646;-55
2023/04/21 05:37:03;;;;;;;;;;;;;;;17.33;100.00;101236.81;5075325;28;19916;-51
2023/04/21 05:39:29;;;;;;;;;;;;;;;17.34;100.00;101241.16;5075522;28;20007;-54
2023/04/21 05:41:55;;;;;;;;;;;;;;;17.10;100.00;101245.66;5074915;28;19980;-52
2023/04/21 05:44:20;;;;;;;;;;;;;;;17.41;100.00;101254.56;5075368;28;19932;-52
2023/04/21 05:46:46;;;;;;;;;;;;;;;17.49;100.00;101248.00;5074871;28;19952;-51
2023/04/21 05:49:11;;;;;;;;;;;;;;;17.33;100.00;101253.03;5075140;28;19923;-52
2023/04/21 05:51:37;;;;;;;;;;;;;;;17.38;100.00;101262.31;5075044;28;19920;-53
2023/04/21 05:54:02;;;;;;;;;;;;;;;17.56;100.00;101256.00;5056733;28;19932;-52
2023/04/21 05:56:28;;;;;;;;;;;;;;;17.58;100.00;101256.59;5054882;28;19948;-55
2023/04/21 05:58:53;;;;;;;;;;;;;;;17.71;100.00;101260.97;5055016;28;19980;-54
2023/04/21 06:01:19;;;;;;;;;;;;;;;17.55;100.00;101263.31;5054898;28;19940;-53
2023/04/21 06:03:47;;;;;;;;;;;;;;;17.61;100.00;101262.38;5037483;28;19980;-53
2023/04/21 06:06:13;;;;;;;;;;;;;;;17.32;100.00;101264.06;5054522;28;19921;-51
2023/04/21 06:08:39;;;;;;;;;;;;;;;17.29;100.00;101259.94;5054716;28;20020;-55
2023/04/21 06:11:04;;;;;;;;;;;;;;;17.40;100.00;101254.81;5054060;28;19925;-54
2023/04/21 06:13:30;;;;;;;;;;;;;;;17.41;100.00;101253.75;5054675;28;19931;-48
2023/04/21 06:15:55;;;;;;;;;;;;;;;17.31;100.00;101246.19;5054656;28;19921;-49
2023/04/21 06:18:20;;;;;;;;;;;;;;;17.65;100.00;101260.03;5054787;28;19917;-47
2023/04/21 06:20:53;;;;;;;;;;;;;;;17.80;100.00;101256.88;5054715;28;19940;-51
2023/04/21 06:23:18;;;;;;;;;;;;;;;17.72;100.00;101243.69;5052658;28;19952;-52
2023/04/21 06:25:43;;;;;;;;;;;;;;;18.15;100.00;101253.38;5037150;28;19917;-52
2023/04/21 06:28:09;;;;;;;;;;;;;;;18.09;100.00;101251.63;5054369;28;19914;-50
2023/04/21 06:30:35;;;;;;;;;;;;;;;17.96;100.00;101244.53;5054435;28;19948;-51
2023/04/21 06:33:00;;;;;;;;;;;;;;;17.90;100.00;101257.13;5054474;28;19921;-51
2023/04/21 06:35:26;;;;;;;;;;;;;;;18.14;100.00;101253.63;5054004;28;19920;-50
2023/04/21 06:37:51;;;;;;;;;;;;;;;18.03;100.00;101245.25;5054270;28;19920;-52
2023/04/21 06:40:17;;;;;;;;;;;;;;;18.14;100.00;101246.31;5053999;28;19917;-50
2023/04/21 06:42:42;;;;;;;;;;;;;;;18.17;100.00;101256.66;5054134;28;19967;-52
2023/04/21 06:45:08;;;;;;;;;;;;;;;18.54;100.00;101252.03;5053683;28;19940;-53
2023/04/21 06:47:34;;;;;;;;;;;;;;;18.47;100.00;101247.59;5054160;28;19944;-53
2023/04/21 06:50:00;;;;;;;;;;;;;;;18.36;100.00;101243.00;5053887;28;19917;-53
2023/04/21 06:52:25;;;;;;;;;;;;;;;18.54;100.00;101249.34;5057883;28;20042;-48
2023/04/21 06:54:51;;;;;;;;;;;;;;;18.42;100.00;101249.34;5073409;28;19908;-51
2023/04/21 06:57:16;;;;;;;;;;;;;;;18.35;100.00;101244.06;5073988;28;19923;-53
2023/04/21 06:59:42;;;;;;;;;;;;;;;18.70;100.00;101254.00;5073581;28;19917;-53
2023/04/21 07:02:07;;;;;;;;;;;;;;;19.17;100.00;101257.63;5073709;28;19924;-51
2023/04/21 07:04:33;;;;;;;;;;;;;;;19.53;99.56;101250.09;5073510;28;19923;-53
2023/04/21 07:06:58;;;;;;;;;;;;;;;19.79;98.52;101250.53;5073614;28;19928;-51
2023/04/21 07:09:24;;;;;;;;;;;;;;;19.71;98.13;101249.03;5073520;28;19917;-51
2023/04/21 07:11:49;;;;;;;;;;;;;;;19.64;99.19;101248.38;5073724;28;19929;-54
2023/04/21 07:14:15;;;;;;;;;;;;;;;19.73;98.65;101249.63;5073422;28;19917;-52
2023/04/21 07:16:40;;;;;;;;;;;;;;;20.03;96.69;101250.38;5073071;28;19999;-51
2023/04/21 07:19:06;;;;;;;;;;;;;;;19.66;97.46;101256.28;5073635;28;19928;-51
2023/04/21 07:21:34;;;;;;;;;;;;;;;19.90;96.27;101252.34;5073614;28;19923;-51
2023/04/21 07:24:01;;;;;;;;;;;;;;;20.25;96.56;101255.84;5072453;28;19924;-49
2023/04/21 07:26:27;;;;;;;;;;;;;;;20.25;95.24;101246.88;5073373;28;19920;-53
2023/04/21 07:28:54;;;;;;;;;;;;;;;20.52;93.52;101254.28;5073176;28;19928;-53
2023/04/21 07:31:19;;;;;;;;;;;;;;;20.73;93.07;101258.88;5073465;28;19952;-54
2023/04/21 07:33:45;;;;;;;;;;;;;;;20.59;92.72;101263.06;5072216;28;19928;-53
2023/04/21 07:36:11;;;;;;;;;;;;;;;19.74;95.07;101261.31;5073266;28;19921;-54
2023/04/21 07:38:37;;;;;;;;;;;;;;;20.45;92.80;101268.06;5073168;28;19917;-49
2023/04/21 07:41:03;;;;;;;;;;;;;;;20.15;92.96;101261.94;5073174;28;20004;-48
2023/04/21 07:43:30;;;;;;;;;;;;;;;20.37;91.71;101254.91;5072966;28;19928;-52
2023/04/21 07:45:56;;;;;;;;;;;;;;;20.83;87.64;101254.69;5073285;28;19955;-55
2023/04/21 07:48:21;;;;;;;;;;;;;;;20.86;86.53;101262.31;5072966;28;19917;-49
2023/04/21 07:50:49;;;;;;;;;;;;;;;20.83;87.16;101260.94;5073172;28;19951;-54
2023/04/21 07:53:14;;;;;;;;;;;;;;;21.22;85.01;101256.44;5072871;28;20007;-53
2023/04/21 07:55:40;;;;;;;;;;;;;;;21.08;83.98;101253.31;5072903;28;19921;-50
2023/04/21 07:58:06;;;;;;;;;;;;;;;21.48;83.08;101249.34;5072783;28;19917;-52
2023/04/21 08:00:32;;;;;;;;;;;;;;;21.47;83.22;101264.03;5073218;28;19961;-52
2023/04/21 08:02:57;;;;;;;;;;;;;;;21.42;82.76;101261.25;5073317;28;19929;-51
2023/04/21 08:05:22;;;;;;;;;;;;;;;21.15;83.06;101267.53;5072834;28;19960;-55
2023/04/21 08:07:47;;;;;;;;;;;;;;;21.14;83.49;101257.72;5072897;28;19931;-53
2023/04/21 08:10:13;;;;;;;;;;;;;;;21.40;82.57;101264.25;5072845;28;19917;-55
2023/04/21 08:12:38;;;;;;;;;;;;;;;21.01;83.35;101243.47;5072727;28;19972;-53
2023/04/21 08:15:07;;;;;;;;;;;;;;;21.17;83.61;101252.59;5072791;28;19925;-52
2023/04/21 08:17:32;;;;;;;;;;;;;;;21.53;82.04;101246.66;5073044;28;20007;-51
2023/04/21 08:19:57;;;;;;;;;;;;;;;21.65;80.93;101242.97;5072605;28;19929;-55
2023/04/21 08:22:23;;;;;;;;;;;;;;;21.67;80.17;101243.53;5072853;28;19952;-56
2023/04/21 08:24:48;;;;;;;;;;;;;;;22.11;79.24;101251.44;5071174;28;19916;-56
2023/04/21 08:27:14;;;;;;;;;;;;;;;21.98;80.38;101249.19;5072939;28;19932;-55
2023/04/21 08:29:39;;;;;;;;;;;;;;;22.35;78.94;101251.00;5072657;28;19924;-55
2023/04/21 08:32:05;;;;;;;;;;;;;;;21.94;79.14;101246.16;5072825;28;19924;-52
2023/04/21 08:34:30;;;;;;;;;;;;;;;21.88;78.89;101247.22;5073904;28;19964;-54
2023/04/21 08:36:55;;;;;;;;;;;;;;;;;;5076739;28;19931;-53
2023/04/21 08:39:20;;;;;;;;;;;;;;;22.39;75.14;101256.75;5076132;28;19921;-52
2023/04/21 08:41:46;;;;;;;;;;;;;;;22.30;75.20;101259.16;5076522;28;19920;-56
2023/04/21 08:44:12;;;;;;;;;;;;;;;22.62;74.72;101250.91;5076273;28;19927;-54
2023/04/21 08:46:37;;;;;;;;;;;;;;;22.26;75.28;101244.44;5076064;28;19986;-54
2023/04/21 08:49:04;;;;;;;;;;;;;;;22.68;73.56;101242.72;5075988;28;19916;-52
2023/04/21 08:51:30;;;;;;;;;;;;;;;22.51;73.23;101238.34;5074564;28;19921;-53
2023/04/21 08:53:56;;;;;;;;;;;;;;;22.74;73.29;101242.50;5075868;28;19947;-52
2023/04/21 08:56:23;;;;;;;;;;;;;;;22.48;73.86;101242.41;5075320;28;19925;-53
2023/04/21 08:58:49;;;;;;;;;;;;;;;22.82;73.05;101241.16;5075909;28;19980;-56
2023/04/21 09:01:14;;;;;;;;;;;;;;;23.03;71.91;101244.72;5075453;28;19917;-53
2023/04/21 09:03:39;;;;;;;;;;;;;;;23.15;72.42;101246.41;5075876;28;19917;-56
2023/04/21 09:06:06;;;;;;;;;;;;;;;23.22;72.46;101249.69;5075372;28;19959;-56
2023/04/21 09:08:32;;;;;;;;;;;;;;;23.41;71.75;101250.00;5075692;28;19917;-50
2023/04/21 09:11:00;;;;;;;;;;;;;;;24.09;70.47;101245.31;5075427;28;19927;-54
2023/04/21 09:13:33;;;;;;;;;;;;;;;24.24;69.51;101247.19;5075490;28;19917;-56
2023/04/21 09:15:59;;;;;;;;;;;;;;;24.31;68.96;101244.97;5074827;28;20145;-54
2023/04/21 09:18:26;;;;;;;;;;;;;;;24.18;67.73;101238.16;5071490;28;19921;-52
2023/04/21 09:21:04;;;;;;;;;;;;;;;24.35;67.63;101237.03;5075126;28;19920;-50
2023/04/21 09:23:30;;;;;;;;;;;;;;;24.64;66.57;101244.56;5075409;28;19983;-50
2023/04/21 09:25:56;;;;;;;;;;;;;;;24.87;65.44;101236.81;5075394;28;19923;-51
2023/04/21 09:28:21;;;;;;;;;;;;;;;25.23;65.26;101243.94;5075107;28;19916;-51
2023/04/21 09:30:53;;;;;;;;;;;;;;;24.83;64.69;101257.63;5074642;28;19921;-49
2023/04/21 09:33:19;;;;;;;;;;;;;;;25.31;64.17;101249.63;5075056;28;19920;-54
2023/04/21 09:35:46;;;;;;;;;;;;;;;25.53;63.50;101242.91;5074459;28;19928;-54
2023/04/21 09:38:12;;;;;;;;;;;;;;;25.97;62.76;101243.88;5056349;28;19921;-53
2023/04/21 09:40:39;;;;;;;;;;;;;;;26.03;62.70;101247.34;5072938;28;20006;-53
2023/04/21 09:43:04;;;;;;;;;;;;;;;25.60;62.73;101239.84;5074336;28;19952;-51
2023/04/21 09:45:29;;;;;;;;;;;;;;;25.79;61.79;101248.16;5074206;28;19921;-51
2023/04/21 09:47:56;;;;;;;;;;;;;;;25.97;61.18;101240.31;5074083;28;19928;-52
2023/04/21 09:50:22;;;;;;;;;;;;;;;25.53;61.27;101239.38;5074878;28;19920;-52
2023/04/21 09:52:49;;;;;;;;;;;;;;;24.89;62.91;101232.69;5074715;28;19920;-53
2023/04/21 09:55:15;;;;;;;;;;;;;;;24.94;63.57;101244.69;5074739;28;19948;-50
2023/04/21 09:57:41;;;;;;;;;;;;;;;24.62;63.78;101238.53;5074423;28;19926;-53
2023/04/21 10:00:08;;;;;;;;;;;;;;;24.77;63.30;101238.50;5074993;28;19917;-50
2023/04/21 10:02:35;;;;;;;;;;;;;;;24.20;64.49;101232.44;5074434;28;19917;-51
2023/04/21 10:05:05;;;;;;;;;;;;;;;24.21;64.34;101234.06;5074658;28;19952;-48
2023/04/21 10:07:31;;;;;;;;;;;;;;;24.40;64.15;101231.53;5074047;28;19917;-54
2023/04/21 10:09:57;;;;;;;;;;;;;;;24.44;64.48;101235.34;5074575;28;19917;-53
2023/04/21 10:12:24;;;;;;;;;;;;;;;24.78;63.65;101228.38;5074358;28;19917;-50
2023/04/21 10:14:51;;;;;;;;;;;;;;;25.12;62.62;101224.88;5074412;28;20107;-53
2023/04/21 10:17:16;;;;;;;;;;;;;;;25.00;62.79;101227.97;5073792;28;19916;-51
2023/04/21 10:19:50;;;;;;;;;;;;;;;25.00;62.74;101227.13;5074301;28;19979;-55
2023/04/21 10:22:25;;;;;;;;;;;;;;;24.94;62.38;101226.38;5071858;28;19963;-54
2023/04/21 10:24:53;;;;;;;;;;;;;;;24.56;62.96;101234.22;5073252;28;19916;-54
2023/04/21 10:27:30;;;;;;;;;;;;;;;24.59;63.20;101223.53;5072582;28;19917;-53
2023/04/21 10:29:57;;;;;;;;;;;;;;;24.85;63.68;101219.84;5072257;28;19917;-54
2023/04/21 10:32:41;;;;;;;;;;;;;;;24.98;62.06;101221.13;5071908;28;19921;-54
2023/04/21 10:35:14;;;;;;;;;;;;;;;26.01;59.97;101214.78;5073800;28;19921;-51
2023/04/21 10:37:41;;;;;;;;;;;;;;;26.15;59.01;101212.16;5072986;28;19917;-54
2023/04/21 10:40:26;;;;;;;;;;;;;;;25.94;58.93;101219.78;5073608;28;19980;-53
2023/04/21 10:42:52;;;;;;;;;;;;;;;25.98;58.90;101211.81;5073301;28;19948;-55
2023/04/21 10:45:17;;;;;;;;;;;;;;;25.73;59.53;101211.81;5073497;28;19939;-52
2023/04/21 10:47:48;;;;;;;;;;;;;;;26.02;58.58;101218.31;5070255;28;19924;-51
2023/04/21 10:50:15;;;;;;;;;;;;;;;25.91;58.66;101206.66;5073696;28;19924;-51
2023/04/21 10:52:51;;;;;;;;;;;;;;;25.97;57.88;101204.69;5072591;28;19928;-51
2023/04/21 10:55:16;;;;;;;;;;;;;;;26.09;58.07;101196.06;5072621;28;19921;-51
2023/04/21 10:57:43;;;;;;;;;;;;;;;26.42;57.10;101199.00;5072187;28;19925;-51
2023/04/21 11:00:10;;;;;;;;;;;;;;;27.72;55.92;101195.06;5073418;28;19963;-54
2023/04/21 11:02:36;;;;;;;;;;;;;;;28.82;53.59;101197.19;5072969;28;19923;-51
2023/04/21 11:05:02;;;;;;;;;;;;;;;29.70;50.44;101204.09;5073069;28;19940;-52
2023/04/21 11:07:28;;;;;;;;;;;;;;;29.76;49.16;101191.00;5073009;28;19920;-52
2023/04/21 11:09:56;;;;;;;;;;;;;;;28.82;50.74;101186.19;5073280;28;19924;-53
2023/04/21 11:12:21;;;;;;;;;;;;;;;29.25;50.22;101182.94;5072981;28;19996;-54
2023/04/21 11:14:47;;;;;;;;;;;;;;;29.21;49.18;101187.44;5069356;28;19924;-52
2023/04/21 11:17:14;;;;;;;;;;;;;;;28.89;48.97;101184.63;5072617;28;19966;-51
2023/04/21 11:19:39;;;;;;;;;;;;;;;30.56;47.39;101183.75;5072757;28;19916;-52
2023/04/21 11:22:05;;;;;;;;;;;;;;;31.00;46.28;101178.22;5072590;28;19916;-54
2023/04/21 11:24:31;;;;;;;;;;;;;;;30.81;45.51;101173.03;5070678;28;20331;-51
2023/04/21 11:26:57;;;;;;;;;;;;;;;30.86;44.73;101170.13;5073155;28;19996;-53
2023/04/21 11:29:23;;;;;;;;;;;;;;;31.32;43.74;101165.81;5073033;28;19944;-55
2023/04/21 11:31:49;;;;;;;;;;;;;;;31.29;43.05;101160.16;5069933;28;20031;-54
2023/04/21 11:34:18;;;;;;;;;;;;;;;30.37;44.58;101149.00;5072680;28;19923;-54
2023/04/21 11:36:44;;;;;;;;;;;;;;;30.76;44.41;101144.47;5070868;28;19921;-53
2023/04/21 11:39:11;;;;;;;;;;;;;;;30.78;44.39;101146.09;5072173;28;19917;-51
2023/04/21 11:41:41;;;;;;;;;;;;;;;31.33;43.57;101150.88;5073036;28;19917;-54
2023/04/21 11:44:07;;;;;;;;;;;;;;;32.13;42.26;101147.72;5072519;28;19924;-52
2023/04/21 11:46:35;;;;;;;;;;;;;;;32.31;41.31;101138.16;5070232;28;19924;-51
2023/04/21 11:49:05;;;;;;;;;;;;;;;33.30;39.95;101132.22;5073118;28;19940;-51
2023/04/21 11:51:33;;;;;;;;;;;;;;;34.03;39.08;101143.69;5071135;28;19931;-56
2023/04/21 11:54:01;;;;;;;;;;;;;;;33.88;38.42;101136.84;5053285;28;21289;-48
2023/04/21 11:56:26;;;;;;;;;;;;;;;34.93;37.72;101132.72;5053199;28;19936;-50
2023/04/21 11:58:51;;;;;;;;;;;;;;;36.57;36.19;101138.16;5053638;28;19917;-52
2023/04/21 12:01:17;;;;;;;;;;;;;;;35.59;36.28;101128.47;5053305;28;19923;-56
2023/04/21 12:03:53;;;;;;;;;;;;;;;34.64;36.73;101124.44;5053189;28;19924;-53
2023/04/21 12:06:19;;;;;;;;;;;;;;;34.49;37.09;101127.97;5052977;28;19936;-54
2023/04/21 12:08:45;;;;;;;;;;;;;;;34.94;35.66;101126.00;5053028;28;19917;-57
2023/04/21 12:11:10;;;;;;;;;;;;;;;36.20;35.10;101128.25;5056510;28;19923;-56
2023/04/21 12:13:38;;;;;;;;;;;;;;;37.92;33.85;101124.50;5057079;28;19917;-56
2023/04/21 12:16:05;;;;;;;;;;;;;;;37.53;33.58;101123.53;5056550;28;19971;-56
2023/04/21 12:18:31;;;;;;;;;;;;;;;35.83;34.33;101123.03;5056682;28;19976;-53
2023/04/21 12:21:00;;;;;;;;;;;;;;;33.95;36.71;101110.50;5056190;28;19925;-55
2023/04/21 12:23:25;;;;;;;;;;;;;;;34.09;36.82;101108.16;5056616;28;19929;-52
2023/04/21 12:25:51;;;;;;;;;;;;;;;34.82;36.04;101112.97;5056374;28;19920;-53
2023/04/21 12:28:17;;;;;;;;;;;;;;;33.09;37.82;101104.56;5056241;28;19924;-50